Delaware, OH

1:46 AM EST on January 29, 2015 (GMT -0500)
Ohio State University | Change Station
CLOSE
Current Station
Airport
Location: Ohio State University,
Elevation: 906 ft
Nearby Weather Stations
Active Advisory: Freezing Rain Advisory

Elev 906 ft 40.08 °N, 83.08 °W | Updated 53 minutes ago

Clear
Clear
26 °F
Feels Like 16 °F
N
10
Wind Variable Wind from SE

Today
High -- | Low -- °F
--% Chance of Precip.
Yesterday
High -- | Low -- °F
Precip. -- in
7:44 AM 5:46 PM
Waxing Gibbous, 71% visible
Pressure 30.18 in
Visibility 10.0 miles
Clouds Clear
Windchill 16 °F
Dew Point 15 °F
Humidity 63%
Rainfall 0.00 in
Snow Depth Not available.
UV 0 out of 12
Pollen .10 out of 12
Air Quality Not available.
Flu Activity Not available.
METAR KOSU 290553Z AUTO 14009KT 10SM CLR M03/M09 A3014 RMK AO2 SLP218 T10331094 11028 21050 58023

More Conditions Fewer Conditions

Pressure 30.18 in
Visibility 10.0 miles
Clouds Clear
Windchill 16 °F
Dew Point 15 °F
Humidity 63%
Rainfall 0.00 in
Snow Depth Not available.
UV 0 out of 12
Pollen .10 out of 12
Air Quality Not available.
Flu Activity Not available.
METAR KOSU 290553Z AUTO 14009KT 10SM CLR M03/M09 A3014 RMK AO2 SLP218 T10331094 11028 21050 58023

More Conditions Fewer Conditions

10-Day Weather Forecast

Almanac

Astronomy

Jan. 29, 2015 Rise Set
Actual Time
Civil Twilight
Nautical Twilight
Astronomical Twilight
Moon
Length of Visible Light
Length of Day
Tomorrow will be .
, % of the Moon is Illuminated

Today's Extremes

State Highs State Lows

Community

WunderPhotos

Upload Photos

1,791,387 photos uploaded!

WunderBlogs® & News

Nearby

Air Quality

  Air Quality AQ Index Pollutant
Not available.

Snow Depth

Station Depth Elevation

Earthquake Activity

City Distance Mag. Time & Date
Minimum magnitude displayed is 2.5.

Coastal Water Temperatures

Place Temperature

Nearby Weather Stations